sensor_id;sensor_type;location;lat;lon;timestamp;P1;durP1;ratioP1;P2;durP2;ratioP2
3083;SDS011;1552;51.952;7.618;2023-09-30T00:00:47;8.57;;;3.67;;
3083;SDS011;1552;51.952;7.618;2023-09-30T00:03:14;11.87;;;3.47;;
3083;SDS011;1552;51.952;7.618;2023-09-30T00:05:40;7.07;;;2.80;;
3083;SDS011;1552;51.952;7.618;2023-09-30T00:08:06;10.13;;;3.13;;
3083;SDS011;1552;51.952;7.618;2023-09-30T00:10:33;7.20;;;3.00;;
3083;SDS011;1552;51.952;7.618;2023-09-30T00:12:59;6.97;;;2.53;;
3083;SDS011;1552;51.952;7.618;2023-09-30T00:15:27;8.80;;;2.87;;
3083;SDS011;1552;51.952;7.618;2023-09-30T00:17:53;6.17;;;3.13;;
3083;SDS011;1552;51.952;7.618;2023-09-30T00:20:20;6.27;;;2.80;;
3083;SDS011;1552;51.952;7.618;2023-09-30T00:22:47;5.87;;;3.37;;
3083;SDS011;1552;51.952;7.618;2023-09-30T00:25:14;9.13;;;3.27;;
3083;SDS011;1552;51.952;7.618;2023-09-30T00:27:40;11.97;;;4.40;;
3083;SDS011;1552;51.952;7.618;2023-09-30T00:30:07;8.90;;;3.60;;
3083;SDS011;1552;51.952;7.618;2023-09-30T00:32:34;10.47;;;3.80;;
3083;SDS011;1552;51.952;7.618;2023-09-30T00:35:01;10.67;;;3.27;;
3083;SDS011;1552;51.952;7.618;2023-09-30T00:37:27;9.27;;;4.30;;
3083;SDS011;1552;51.952;7.618;2023-09-30T00:39:54;7.07;;;3.37;;
3083;SDS011;1552;51.952;7.618;2023-09-30T00:42:20;11.57;;;3.87;;
3083;SDS011;1552;51.952;7.618;2023-09-30T00:44:46;8.47;;;3.53;;
3083;SDS011;1552;51.952;7.618;2023-09-30T00:47:13;8.93;;;3.63;;
3083;SDS011;1552;51.952;7.618;2023-09-30T00:49:42;10.30;;;3.63;;
3083;SDS011;1552;51.952;7.618;2023-09-30T00:52:08;10.23;;;4.10;;
3083;SDS011;1552;51.952;7.618;2023-09-30T00:54:35;9.60;;;3.67;;
3083;SDS011;1552;51.952;7.618;2023-09-30T00:57:02;7.20;;;2.93;;
3083;SDS011;1552;51.952;7.618;2023-09-30T00:59:29;7.30;;;3.40;;
3083;SDS011;1552;51.952;7.618;2023-09-30T01:01:58;11.10;;;4.03;;
3083;SDS011;1552;51.952;7.618;2023-09-30T01:04:26;5.63;;;3.27;;
3083;SDS011;1552;51.952;7.618;2023-09-30T01:06:54;19.70;;;3.33;;
3083;SDS011;1552;51.952;7.618;2023-09-30T01:09:22;7.80;;;3.70;;
3083;SDS011;1552;51.952;7.618;2023-09-30T01:11:48;6.03;;;3.00;;
3083;SDS011;1552;51.952;7.618;2023-09-30T01:14:24;8.43;;;3.50;;
3083;SDS011;1552;51.952;7.618;2023-09-30T01:16:50;7.93;;;3.53;;
3083;SDS011;1552;51.952;7.618;2023-09-30T01:19:17;6.83;;;2.97;;
3083;SDS011;1552;51.952;7.618;2023-09-30T01:21:44;9.17;;;3.80;;
3083;SDS011;1552;51.952;7.618;2023-09-30T01:24:13;11.63;;;3.17;;
3083;SDS011;1552;51.952;7.618;2023-09-30T01:26:39;13.50;;;4.17;;
3083;SDS011;1552;51.952;7.618;2023-09-30T01:29:07;18.53;;;4.07;;
3083;SDS011;1552;51.952;7.618;2023-09-30T01:31:36;9.70;;;3.80;;
3083;SDS011;1552;51.952;7.618;2023-09-30T01:34:02;7.50;;;3.70;;
3083;SDS011;1552;51.952;7.618;2023-09-30T01:36:28;10.33;;;3.50;;
3083;SDS011;1552;51.952;7.618;2023-09-30T01:38:56;10.30;;;3.33;;
3083;SDS011;1552;51.952;7.618;2023-09-30T01:41:22;8.67;;;3.17;;
3083;SDS011;1552;51.952;7.618;2023-09-30T01:43:49;7.53;;;3.57;;
3083;SDS011;1552;51.952;7.618;2023-09-30T01:46:15;15.50;;;3.33;;
3083;SDS011;1552;51.952;7.618;2023-09-30T01:48:42;8.63;;;3.10;;
3083;SDS011;1552;51.952;7.618;2023-09-30T01:51:08;7.40;;;3.60;;
3083;SDS011;1552;51.952;7.618;2023-09-30T01:53:34;6.83;;;2.90;;
3083;SDS011;1552;51.952;7.618;2023-09-30T01:56:02;19.13;;;4.00;;
3083;SDS011;1552;51.952;7.618;2023-09-30T01:58:29;20.63;;;3.50;;
3083;SDS011;1552;51.952;7.618;2023-09-30T02:01:01;7.53;;;3.10;;
3083;SDS011;1552;51.952;7.618;2023-09-30T02:03:27;8.10;;;3.53;;
3083;SDS011;1552;51.952;7.618;2023-09-30T02:05:54;11.10;;;3.40;;
3083;SDS011;1552;51.952;7.618;2023-09-30T02:08:20;8.10;;;3.30;;
3083;SDS011;1552;51.952;7.618;2023-09-30T02:10:47;7.83;;;3.17;;
3083;SDS011;1552;51.952;7.618;2023-09-30T02:13:15;7.27;;;3.70;;
3083;SDS011;1552;51.952;7.618;2023-09-30T02:15:41;11.37;;;3.83;;
3083;SDS011;1552;51.952;7.618;2023-09-30T02:18:07;8.00;;;3.30;;
3083;SDS011;1552;51.952;7.618;2023-09-30T02:20:34;6.53;;;2.93;;
3083;SDS011;1552;51.952;7.618;2023-09-30T02:23:01;11.63;;;3.80;;
3083;SDS011;1552;51.952;7.618;2023-09-30T02:25:28;9.93;;;3.50;;
3083;SDS011;1552;51.952;7.618;2023-09-30T02:27:55;8.93;;;3.57;;
3083;SDS011;1552;51.952;7.618;2023-09-30T02:30:23;9.03;;;3.97;;
3083;SDS011;1552;51.952;7.618;2023-09-30T02:32:49;7.63;;;3.70;;
3083;SDS011;1552;51.952;7.618;2023-09-30T02:35:16;9.97;;;3.53;;
3083;SDS011;1552;51.952;7.618;2023-09-30T02:37:43;18.23;;;3.40;;
3083;SDS011;1552;51.952;7.618;2023-09-30T02:40:09;7.50;;;3.23;;
3083;SDS011;1552;51.952;7.618;2023-09-30T02:42:36;12.33;;;4.07;;
3083;SDS011;1552;51.952;7.618;2023-09-30T02:45:03;9.33;;;3.07;;
3083;SDS011;1552;51.952;7.618;2023-09-30T02:47:30;5.47;;;2.70;;
3083;SDS011;1552;51.952;7.618;2023-09-30T02:49:57;10.27;;;3.47;;
3083;SDS011;1552;51.952;7.618;2023-09-30T02:52:23;7.20;;;3.80;;
3083;SDS011;1552;51.952;7.618;2023-09-30T02:54:50;11.03;;;4.20;;
3083;SDS011;1552;51.952;7.618;2023-09-30T02:57:16;10.60;;;4.13;;
3083;SDS011;1552;51.952;7.618;2023-09-30T02:59:43;20.40;;;3.33;;
3083;SDS011;1552;51.952;7.618;2023-09-30T03:02:09;17.17;;;4.10;;
3083;SDS011;1552;51.952;7.618;2023-09-30T03:04:37;12.27;;;3.40;;
3083;SDS011;1552;51.952;7.618;2023-09-30T03:07:03;7.67;;;3.67;;
3083;SDS011;1552;51.952;7.618;2023-09-30T03:09:30;10.90;;;4.07;;
3083;SDS011;1552;51.952;7.618;2023-09-30T03:11:56;14.03;;;4.13;;
3083;SDS011;1552;51.952;7.618;2023-09-30T03:14:24;14.20;;;3.47;;
3083;SDS011;1552;51.952;7.618;2023-09-30T03:16:50;6.30;;;3.17;;
3083;SDS011;1552;51.952;7.618;2023-09-30T03:19:17;6.53;;;2.70;;
3083;SDS011;1552;51.952;7.618;2023-09-30T03:21:44;16.50;;;4.20;;
3083;SDS011;1552;51.952;7.618;2023-09-30T03:24:11;10.67;;;4.23;;
3083;SDS011;1552;51.952;7.618;2023-09-30T03:26:37;8.67;;;4.20;;
3083;SDS011;1552;51.952;7.618;2023-09-30T03:29:05;7.90;;;3.67;;
3083;SDS011;1552;51.952;7.618;2023-09-30T03:31:32;11.97;;;3.73;;
3083;SDS011;1552;51.952;7.618;2023-09-30T03:33:58;9.93;;;4.23;;
3083;SDS011;1552;51.952;7.618;2023-09-30T03:36:25;8.43;;;3.13;;
3083;SDS011;1552;51.952;7.618;2023-09-30T03:38:52;12.67;;;4.47;;
3083;SDS011;1552;51.952;7.618;2023-09-30T03:41:20;17.67;;;3.87;;
3083;SDS011;1552;51.952;7.618;2023-09-30T03:43:47;6.10;;;3.53;;
3083;SDS011;1552;51.952;7.618;2023-09-30T03:46:14;8.27;;;2.90;;
3083;SDS011;1552;51.952;7.618;2023-09-30T03:48:41;10.63;;;4.17;;
3083;SDS011;1552;51.952;7.618;2023-09-30T03:51:08;7.73;;;3.87;;
3083;SDS011;1552;51.952;7.618;2023-09-30T03:53:34;6.97;;;3.30;;
3083;SDS011;1552;51.952;7.618;2023-09-30T03:56:02;8.43;;;4.17;;
3083;SDS011;1552;51.952;7.618;2023-09-30T03:58:28;6.17;;;3.67;;
3083;SDS011;1552;51.952;7.618;2023-09-30T04:00:55;9.80;;;3.90;;
3083;SDS011;1552;51.952;7.618;2023-09-30T04:03:21;6.80;;;3.13;;
3083;SDS011;1552;51.952;7.618;2023-09-30T04:05:48;6.53;;;3.93;;
3083;SDS011;1552;51.952;7.618;2023-09-30T04:08:15;7.73;;;4.33;;
3083;SDS011;1552;51.952;7.618;2023-09-30T04:10:42;10.13;;;3.20;;
3083;SDS011;1552;51.952;7.618;2023-09-30T04:13:10;5.17;;;3.33;;
3083;SDS011;1552;51.952;7.618;2023-09-30T04:15:37;7.70;;;3.93;;
3083;SDS011;1552;51.952;7.618;2023-09-30T04:18:03;10.17;;;4.23;;
3083;SDS011;1552;51.952;7.618;2023-09-30T04:20:30;9.43;;;3.70;;
3083;SDS011;1552;51.952;7.618;2023-09-30T04:22:57;8.43;;;3.83;;
3083;SDS011;1552;51.952;7.618;2023-09-30T04:25:23;9.67;;;3.67;;
3083;SDS011;1552;51.952;7.618;2023-09-30T04:27:50;7.77;;;3.97;;
3083;SDS011;1552;51.952;7.618;2023-09-30T04:30:19;8.73;;;4.47;;
3083;SDS011;1552;51.952;7.618;2023-09-30T04:32:47;7.47;;;3.80;;
3083;SDS011;1552;51.952;7.618;2023-09-30T04:35:13;6.20;;;3.50;;
3083;SDS011;1552;51.952;7.618;2023-09-30T04:37:40;12.03;;;4.50;;
3083;SDS011;1552;51.952;7.618;2023-09-30T04:40:07;9.43;;;4.17;;
3083;SDS011;1552;51.952;7.618;2023-09-30T04:42:40;11.37;;;3.80;;
3083;SDS011;1552;51.952;7.618;2023-09-30T04:45:06;11.93;;;4.33;;
3083;SDS011;1552;51.952;7.618;2023-09-30T04:47:36;7.50;;;3.93;;
3083;SDS011;1552;51.952;7.618;2023-09-30T04:50:04;7.50;;;3.70;;
3083;SDS011;1552;51.952;7.618;2023-09-30T04:52:32;10.53;;;4.27;;
3083;SDS011;1552;51.952;7.618;2023-09-30T04:54:58;8.53;;;3.83;;
3083;SDS011;1552;51.952;7.618;2023-09-30T04:57:25;7.07;;;3.43;;
3083;SDS011;1552;51.952;7.618;2023-09-30T04:59:51;9.20;;;4.50;;
3083;SDS011;1552;51.952;7.618;2023-09-30T05:02:18;11.83;;;3.50;;
3083;SDS011;1552;51.952;7.618;2023-09-30T05:04:45;4.87;;;3.73;;
3083;SDS011;1552;51.952;7.618;2023-09-30T05:07:11;9.33;;;4.03;;
3083;SDS011;1552;51.952;7.618;2023-09-30T05:09:38;7.70;;;3.57;;
3083;SDS011;1552;51.952;7.618;2023-09-30T05:12:05;9.50;;;3.63;;
3083;SDS011;1552;51.952;7.618;2023-09-30T05:14:31;10.13;;;4.20;;
3083;SDS011;1552;51.952;7.618;2023-09-30T05:16:58;6.87;;;4.10;;
3083;SDS011;1552;51.952;7.618;2023-09-30T05:19:24;8.47;;;4.10;;
3083;SDS011;1552;51.952;7.618;2023-09-30T05:21:52;13.17;;;5.37;;
3083;SDS011;1552;51.952;7.618;2023-09-30T05:24:19;9.43;;;4.03;;
3083;SDS011;1552;51.952;7.618;2023-09-30T05:26:46;6.93;;;4.50;;
3083;SDS011;1552;51.952;7.618;2023-09-30T05:29:13;12.40;;;4.80;;
3083;SDS011;1552;51.952;7.618;2023-09-30T05:31:39;4.97;;;3.20;;
3083;SDS011;1552;51.952;7.618;2023-09-30T05:34:05;7.13;;;3.83;;
3083;SDS011;1552;51.952;7.618;2023-09-30T05:36:32;10.30;;;4.27;;
3083;SDS011;1552;51.952;7.618;2023-09-30T05:39:01;7.13;;;4.20;;
3083;SDS011;1552;51.952;7.618;2023-09-30T05:41:28;13.43;;;4.47;;
3083;SDS011;1552;51.952;7.618;2023-09-30T05:43:54;8.87;;;5.27;;
3083;SDS011;1552;51.952;7.618;2023-09-30T05:46:21;8.80;;;4.83;;
3083;SDS011;1552;51.952;7.618;2023-09-30T05:48:47;6.73;;;4.27;;
3083;SDS011;1552;51.952;7.618;2023-09-30T05:51:13;16.07;;;4.53;;
3083;SDS011;1552;51.952;7.618;2023-09-30T05:53:40;13.60;;;5.43;;
3083;SDS011;1552;51.952;7.618;2023-09-30T05:56:08;12.60;;;4.50;;
3083;SDS011;1552;51.952;7.618;2023-09-30T05:58:36;9.23;;;4.50;;
3083;SDS011;1552;51.952;7.618;2023-09-30T06:01:03;14.10;;;4.37;;
3083;SDS011;1552;51.952;7.618;2023-09-30T06:03:35;12.43;;;5.17;;
3083;SDS011;1552;51.952;7.618;2023-09-30T06:06:09;8.97;;;4.97;;
3083;SDS011;1552;51.952;7.618;2023-09-30T06:08:36;13.80;;;5.03;;
3083;SDS011;1552;51.952;7.618;2023-09-30T06:11:02;15.37;;;5.20;;
3083;SDS011;1552;51.952;7.618;2023-09-30T06:13:31;9.27;;;4.60;;
3083;SDS011;1552;51.952;7.618;2023-09-30T06:15:58;12.93;;;4.53;;
3083;SDS011;1552;51.952;7.618;2023-09-30T06:18:24;14.40;;;5.90;;
3083;SDS011;1552;51.952;7.618;2023-09-30T06:20:50;16.73;;;5.47;;
3083;SDS011;1552;51.952;7.618;2023-09-30T06:23:17;8.97;;;5.50;;
3083;SDS011;1552;51.952;7.618;2023-09-30T06:25:43;10.90;;;4.83;;
3083;SDS011;1552;51.952;7.618;2023-09-30T06:28:09;10.37;;;4.80;;
3083;SDS011;1552;51.952;7.618;2023-09-30T06:30:37;14.70;;;5.10;;
3083;SDS011;1552;51.952;7.618;2023-09-30T06:33:07;13.40;;;5.20;;
3083;SDS011;1552;51.952;7.618;2023-09-30T06:35:36;11.60;;;5.70;;
3083;SDS011;1552;51.952;7.618;2023-09-30T06:38:15;10.13;;;5.13;;
3083;SDS011;1552;51.952;7.618;2023-09-30T06:40:42;7.87;;;4.80;;
3083;SDS011;1552;51.952;7.618;2023-09-30T06:43:08;10.70;;;5.03;;
3083;SDS011;1552;51.952;7.618;2023-09-30T06:45:35;8.37;;;4.93;;
3083;SDS011;1552;51.952;7.618;2023-09-30T06:48:07;9.47;;;4.50;;
3083;SDS011;1552;51.952;7.618;2023-09-30T06:50:37;10.17;;;4.20;;
3083;SDS011;1552;51.952;7.618;2023-09-30T06:53:04;11.00;;;5.60;;
3083;SDS011;1552;51.952;7.618;2023-09-30T06:55:30;11.77;;;5.67;;
3083;SDS011;1552;51.952;7.618;2023-09-30T06:57:57;16.30;;;5.33;;
3083;SDS011;1552;51.952;7.618;2023-09-30T07:00:23;7.33;;;5.77;;
3083;SDS011;1552;51.952;7.618;2023-09-30T07:02:50;12.83;;;5.73;;
3083;SDS011;1552;51.952;7.618;2023-09-30T07:05:18;10.33;;;5.07;;
3083;SDS011;1552;51.952;7.618;2023-09-30T07:07:44;9.37;;;5.43;;
3083;SDS011;1552;51.952;7.618;2023-09-30T07:10:10;12.40;;;5.53;;
3083;SDS011;1552;51.952;7.618;2023-09-30T07:12:37;10.73;;;5.83;;
3083;SDS011;1552;51.952;7.618;2023-09-30T07:15:04;10.50;;;4.77;;
3083;SDS011;1552;51.952;7.618;2023-09-30T07:17:31;9.37;;;5.33;;
3083;SDS011;1552;51.952;7.618;2023-09-30T07:19:57;9.73;;;5.60;;
3083;SDS011;1552;51.952;7.618;2023-09-30T07:22:26;14.17;;;6.20;;
3083;SDS011;1552;51.952;7.618;2023-09-30T07:24:52;9.87;;;5.00;;
3083;SDS011;1552;51.952;7.618;2023-09-30T07:27:18;11.53;;;5.67;;
3083;SDS011;1552;51.952;7.618;2023-09-30T07:29:45;11.73;;;5.97;;
3083;SDS011;1552;51.952;7.618;2023-09-30T07:32:11;11.00;;;5.17;;
3083;SDS011;1552;51.952;7.618;2023-09-30T07:34:38;9.07;;;4.83;;
3083;SDS011;1552;51.952;7.618;2023-09-30T07:37:04;10.53;;;5.90;;
3083;SDS011;1552;51.952;7.618;2023-09-30T07:39:32;12.07;;;6.13;;
3083;SDS011;1552;51.952;7.618;2023-09-30T07:41:58;10.43;;;6.10;;
3083;SDS011;1552;51.952;7.618;2023-09-30T07:44:24;9.63;;;5.43;;
3083;SDS011;1552;51.952;7.618;2023-09-30T07:46:51;13.60;;;5.53;;
3083;SDS011;1552;51.952;7.618;2023-09-30T07:49:17;11.70;;;5.83;;
3083;SDS011;1552;51.952;7.618;2023-09-30T07:51:44;13.87;;;5.73;;
3083;SDS011;1552;51.952;7.618;2023-09-30T07:54:11;14.13;;;6.47;;
3083;SDS011;1552;51.952;7.618;2023-09-30T07:56:38;7.10;;;4.53;;
3083;SDS011;1552;51.952;7.618;2023-09-30T07:59:05;12.80;;;6.23;;
3083;SDS011;1552;51.952;7.618;2023-09-30T08:01:31;12.23;;;6.87;;
3083;SDS011;1552;51.952;7.618;2023-09-30T08:03:57;12.83;;;5.47;;
3083;SDS011;1552;51.952;7.618;2023-09-30T08:06:24;12.03;;;5.83;;
3083;SDS011;1552;51.952;7.618;2023-09-30T08:08:50;10.33;;;5.13;;
3083;SDS011;1552;51.952;7.618;2023-09-30T08:11:17;11.10;;;6.27;;
3083;SDS011;1552;51.952;7.618;2023-09-30T08:13:47;13.57;;;5.97;;
3083;SDS011;1552;51.952;7.618;2023-09-30T08:16:13;12.70;;;5.47;;
3083;SDS011;1552;51.952;7.618;2023-09-30T08:18:40;9.87;;;5.83;;
3083;SDS011;1552;51.952;7.618;2023-09-30T08:21:08;11.53;;;5.57;;
3083;SDS011;1552;51.952;7.618;2023-09-30T08:23:35;16.50;;;5.43;;
3083;SDS011;1552;51.952;7.618;2023-09-30T08:26:01;9.60;;;4.87;;
3083;SDS011;1552;51.952;7.618;2023-09-30T08:28:30;9.30;;;5.97;;
3083;SDS011;1552;51.952;7.618;2023-09-30T08:31:02;10.20;;;6.23;;
3083;SDS011;1552;51.952;7.618;2023-09-30T08:33:29;9.57;;;5.13;;
3083;SDS011;1552;51.952;7.618;2023-09-30T08:35:56;9.97;;;5.37;;
3083;SDS011;1552;51.952;7.618;2023-09-30T08:38:23;9.10;;;4.77;;
3083;SDS011;1552;51.952;7.618;2023-09-30T08:40:49;10.27;;;4.67;;
3083;SDS011;1552;51.952;7.618;2023-09-30T08:43:18;8.43;;;5.20;;
3083;SDS011;1552;51.952;7.618;2023-09-30T08:45:49;10.17;;;5.77;;
3083;SDS011;1552;51.952;7.618;2023-09-30T08:48:21;18.23;;;6.07;;
3083;SDS011;1552;51.952;7.618;2023-09-30T08:50:48;10.57;;;5.70;;
3083;SDS011;1552;51.952;7.618;2023-09-30T08:53:14;8.50;;;5.40;;
3083;SDS011;1552;51.952;7.618;2023-09-30T08:55:42;12.17;;;5.07;;
3083;SDS011;1552;51.952;7.618;2023-09-30T08:58:09;11.77;;;5.57;;
3083;SDS011;1552;51.952;7.618;2023-09-30T09:00:36;7.83;;;5.07;;
3083;SDS011;1552;51.952;7.618;2023-09-30T09:03:04;11.38;;;4.47;;
3083;SDS011;1552;51.952;7.618;2023-09-30T09:05:32;10.80;;;5.53;;
3083;SDS011;1552;51.952;7.618;2023-09-30T09:07:58;9.47;;;5.83;;
3083;SDS011;1552;51.952;7.618;2023-09-30T09:10:24;11.43;;;6.43;;
3083;SDS011;1552;51.952;7.618;2023-09-30T09:12:54;7.97;;;4.47;;
3083;SDS011;1552;51.952;7.618;2023-09-30T09:15:22;10.23;;;5.43;;
3083;SDS011;1552;51.952;7.618;2023-09-30T09:17:49;11.75;;;5.78;;
3083;SDS011;1552;51.952;7.618;2023-09-30T09:20:17;10.30;;;4.80;;
3083;SDS011;1552;51.952;7.618;2023-09-30T09:22:46;8.80;;;4.70;;
3083;SDS011;1552;51.952;7.618;2023-09-30T09:25:13;10.50;;;4.80;;
3083;SDS011;1552;51.952;7.618;2023-09-30T09:27:39;9.17;;;4.93;;
3083;SDS011;1552;51.952;7.618;2023-09-30T09:30:15;9.20;;;4.05;;
3083;SDS011;1552;51.952;7.618;2023-09-30T09:32:51;9.35;;;4.85;;
3083;SDS011;1552;51.952;7.618;2023-09-30T09:35:19;11.32;;;4.97;;
3083;SDS011;1552;51.952;7.618;2023-09-30T09:37:50;13.63;;;3.88;;
3083;SDS011;1552;51.952;7.618;2023-09-30T09:40:22;10.07;;;3.97;;
3083;SDS011;1552;51.952;7.618;2023-09-30T09:42:48;7.30;;;3.80;;
3083;SDS011;1552;51.952;7.618;2023-09-30T09:45:18;5.82;;;3.65;;
3083;SDS011;1552;51.952;7.618;2023-09-30T09:47:45;8.13;;;4.20;;
3083;SDS011;1552;51.952;7.618;2023-09-30T09:50:12;10.70;;;4.05;;
3083;SDS011;1552;51.952;7.618;2023-09-30T09:52:39;5.70;;;3.40;;
3083;SDS011;1552;51.952;7.618;2023-09-30T09:55:08;7.65;;;3.72;;
3083;SDS011;1552;51.952;7.618;2023-09-30T09:57:36;5.68;;;3.47;;
3083;SDS011;1552;51.952;7.618;2023-09-30T10:00:03;8.73;;;3.55;;
3083;SDS011;1552;51.952;7.618;2023-09-30T10:02:36;5.97;;;3.42;;
3083;SDS011;1552;51.952;7.618;2023-09-30T10:05:05;4.50;;;3.28;;
3083;SDS011;1552;51.952;7.618;2023-09-30T10:07:33;11.38;;;3.50;;
3083;SDS011;1552;51.952;7.618;2023-09-30T10:10:00;8.25;;;4.10;;
3083;SDS011;1552;51.952;7.618;2023-09-30T10:12:28;6.32;;;2.90;;
3083;SDS011;1552;51.952;7.618;2023-09-30T10:14:54;5.50;;;2.95;;
3083;SDS011;1552;51.952;7.618;2023-09-30T10:17:20;6.18;;;3.35;;
3083;SDS011;1552;51.952;7.618;2023-09-30T10:20:05;9.70;;;3.53;;
3083;SDS011;1552;51.952;7.618;2023-09-30T10:22:32;7.90;;;3.53;;
3083;SDS011;1552;51.952;7.618;2023-09-30T10:24:59;5.40;;;2.42;;
3083;SDS011;1552;51.952;7.618;2023-09-30T10:27:31;8.20;;;3.50;;
3083;SDS011;1552;51.952;7.618;2023-09-30T10:29:57;8.23;;;3.47;;
3083;SDS011;1552;51.952;7.618;2023-09-30T10:32:27;7.68;;;3.35;;
3083;SDS011;1552;51.952;7.618;2023-09-30T10:35:13;4.20;;;2.85;;
3083;SDS011;1552;51.952;7.618;2023-09-30T10:37:42;7.07;;;3.33;;
3083;SDS011;1552;51.952;7.618;2023-09-30T10:40:08;5.78;;;2.55;;
3083;SDS011;1552;51.952;7.618;2023-09-30T10:42:45;7.53;;;2.95;;
3083;SDS011;1552;51.952;7.618;2023-09-30T10:47:58;5.15;;;2.13;;
3083;SDS011;1552;51.952;7.618;2023-09-30T10:53:21;3.83;;;2.17;;
3083;SDS011;1552;51.952;7.618;2023-09-30T10:55:52;4.65;;;2.20;;
3083;SDS011;1552;51.952;7.618;2023-09-30T10:58:21;8.80;;;2.25;;
3083;SDS011;1552;51.952;7.618;2023-09-30T11:00:51;4.65;;;2.40;;
3083;SDS011;1552;51.952;7.618;2023-09-30T11:03:19;6.55;;;2.60;;
3083;SDS011;1552;51.952;7.618;2023-09-30T11:05:47;12.40;;;2.70;;
3083;SDS011;1552;51.952;7.618;2023-09-30T11:08:13;5.47;;;2.45;;
3083;SDS011;1552;51.952;7.618;2023-09-30T11:10:46;5.15;;;2.45;;
3083;SDS011;1552;51.952;7.618;2023-09-30T11:13:13;3.88;;;2.30;;
3083;SDS011;1552;51.952;7.618;2023-09-30T11:15:40;5.50;;;3.45;;
3083;SDS011;1552;51.952;7.618;2023-09-30T11:18:13;5.47;;;2.97;;
3083;SDS011;1552;51.952;7.618;2023-09-30T11:20:39;5.57;;;2.33;;
3083;SDS011;1552;51.952;7.618;2023-09-30T11:23:06;8.43;;;2.85;;
3083;SDS011;1552;51.952;7.618;2023-09-30T11:25:34;4.85;;;2.35;;
3083;SDS011;1552;51.952;7.618;2023-09-30T11:28:12;5.35;;;2.10;;
3083;SDS011;1552;51.952;7.618;2023-09-30T11:30:53;5.53;;;2.85;;
3083;SDS011;1552;51.952;7.618;2023-09-30T11:33:19;5.38;;;2.45;;
3083;SDS011;1552;51.952;7.618;2023-09-30T11:35:55;8.40;;;2.67;;
3083;SDS011;1552;51.952;7.618;2023-09-30T11:38:22;5.72;;;2.97;;
3083;SDS011;1552;51.952;7.618;2023-09-30T11:40:58;4.00;;;2.47;;
3083;SDS011;1552;51.952;7.618;2023-09-30T11:43:25;8.05;;;2.35;;
3083;SDS011;1552;51.952;7.618;2023-09-30T11:45:51;3.15;;;1.85;;
3083;SDS011;1552;51.952;7.618;2023-09-30T11:48:19;4.57;;;2.45;;
3083;SDS011;1552;51.952;7.618;2023-09-30T11:50:46;3.17;;;2.40;;
3083;SDS011;1552;51.952;7.618;2023-09-30T11:53:15;9.80;;;3.08;;
3083;SDS011;1552;51.952;7.618;2023-09-30T11:55:41;4.47;;;2.42;;
3083;SDS011;1552;51.952;7.618;2023-09-30T11:58:07;5.50;;;2.88;;
3083;SDS011;1552;51.952;7.618;2023-09-30T12:00:34;5.30;;;2.20;;
3083;SDS011;1552;51.952;7.618;2023-09-30T12:03:01;8.15;;;2.78;;
3083;SDS011;1552;51.952;7.618;2023-09-30T12:05:29;13.13;;;2.63;;
3083;SDS011;1552;51.952;7.618;2023-09-30T12:07:57;10.30;;;2.58;;
3083;SDS011;1552;51.952;7.618;2023-09-30T12:10:23;8.20;;;2.92;;
3083;SDS011;1552;51.952;7.618;2023-09-30T12:12:51;4.75;;;2.35;;
3083;SDS011;1552;51.952;7.618;2023-09-30T12:15:17;5.05;;;2.50;;
3083;SDS011;1552;51.952;7.618;2023-09-30T12:17:48;4.60;;;2.42;;
3083;SDS011;1552;51.952;7.618;2023-09-30T12:20:14;4.82;;;2.38;;
3083;SDS011;1552;51.952;7.618;2023-09-30T12:22:44;3.92;;;2.30;;
3083;SDS011;1552;51.952;7.618;2023-09-30T12:25:10;3.15;;;2.22;;
3083;SDS011;1552;51.952;7.618;2023-09-30T12:27:37;4.55;;;2.47;;
3083;SDS011;1552;51.952;7.618;2023-09-30T12:30:05;4.97;;;1.98;;
3083;SDS011;1552;51.952;7.618;2023-09-30T12:32:32;8.38;;;2.15;;
3083;SDS011;1552;51.952;7.618;2023-09-30T12:34:58;5.97;;;2.55;;
3083;SDS011;1552;51.952;7.618;2023-09-30T12:37:24;3.10;;;2.15;;
3083;SDS011;1552;51.952;7.618;2023-09-30T12:39:52;3.65;;;2.17;;
3083;SDS011;1552;51.952;7.618;2023-09-30T12:42:18;2.85;;;1.67;;
3083;SDS011;1552;51.952;7.618;2023-09-30T12:44:45;7.00;;;3.20;;
3083;SDS011;1552;51.952;7.618;2023-09-30T12:47:11;8.85;;;3.38;;
3083;SDS011;1552;51.952;7.618;2023-09-30T12:49:38;6.25;;;2.95;;
3083;SDS011;1552;51.952;7.618;2023-09-30T12:52:04;6.10;;;3.05;;
3083;SDS011;1552;51.952;7.618;2023-09-30T12:54:31;4.80;;;2.58;;
3083;SDS011;1552;51.952;7.618;2023-09-30T12:56:59;8.18;;;2.78;;
3083;SDS011;1552;51.952;7.618;2023-09-30T12:59:25;4.63;;;2.35;;
3083;SDS011;1552;51.952;7.618;2023-09-30T13:01:52;4.32;;;2.35;;
3083;SDS011;1552;51.952;7.618;2023-09-30T13:04:18;10.52;;;2.35;;
3083;SDS011;1552;51.952;7.618;2023-09-30T13:06:45;7.35;;;2.20;;
3083;SDS011;1552;51.952;7.618;2023-09-30T13:09:11;4.30;;;1.92;;
3083;SDS011;1552;51.952;7.618;2023-09-30T13:11:37;4.97;;;2.35;;
3083;SDS011;1552;51.952;7.618;2023-09-30T13:14:05;6.13;;;2.35;;
3083;SDS011;1552;51.952;7.618;2023-09-30T13:16:32;5.15;;;2.65;;
3083;SDS011;1552;51.952;7.618;2023-09-30T13:18:58;4.45;;;2.60;;
3083;SDS011;1552;51.952;7.618;2023-09-30T13:21:24;4.38;;;1.98;;
3083;SDS011;1552;51.952;7.618;2023-09-30T13:23:51;4.07;;;2.10;;
3083;SDS011;1552;51.952;7.618;2023-09-30T13:26:17;3.88;;;2.05;;
3083;SDS011;1552;51.952;7.618;2023-09-30T13:28:44;3.90;;;2.33;;
3083;SDS011;1552;51.952;7.618;2023-09-30T13:31:12;5.35;;;2.72;;
3083;SDS011;1552;51.952;7.618;2023-09-30T13:33:38;5.43;;;2.80;;
3083;SDS011;1552;51.952;7.618;2023-09-30T13:36:04;8.48;;;2.58;;
3083;SDS011;1552;51.952;7.618;2023-09-30T13:38:31;7.43;;;2.60;;
3083;SDS011;1552;51.952;7.618;2023-09-30T13:40:58;9.75;;;2.78;;
3083;SDS011;1552;51.952;7.618;2023-09-30T13:43:24;6.70;;;2.30;;
3083;SDS011;1552;51.952;7.618;2023-09-30T13:45:51;5.28;;;2.55;;
3083;SDS011;1552;51.952;7.618;2023-09-30T13:48:19;3.97;;;2.40;;
3083;SDS011;1552;51.952;7.618;2023-09-30T13:50:45;8.10;;;2.38;;
3083;SDS011;1552;51.952;7.618;2023-09-30T13:53:11;6.82;;;2.60;;
3083;SDS011;1552;51.952;7.618;2023-09-30T13:55:38;4.05;;;1.90;;
3083;SDS011;1552;51.952;7.618;2023-09-30T13:58:05;6.30;;;2.38;;
3083;SDS011;1552;51.952;7.618;2023-09-30T14:00:31;5.95;;;2.40;;
3083;SDS011;1552;51.952;7.618;2023-09-30T14:02:59;7.00;;;2.50;;
3083;SDS011;1552;51.952;7.618;2023-09-30T14:05:27;6.40;;;2.53;;
3083;SDS011;1552;51.952;7.618;2023-09-30T14:07:53;5.10;;;1.77;;
3083;SDS011;1552;51.952;7.618;2023-09-30T14:10:19;5.10;;;2.70;;
3083;SDS011;1552;51.952;7.618;2023-09-30T14:12:46;4.65;;;2.30;;
3083;SDS011;1552;51.952;7.618;2023-09-30T14:15:12;2.78;;;2.20;;
3083;SDS011;1552;51.952;7.618;2023-09-30T14:17:40;5.85;;;2.00;;
3083;SDS011;1552;51.952;7.618;2023-09-30T14:20:07;6.00;;;3.15;;
3083;SDS011;1552;51.952;7.618;2023-09-30T14:22:35;3.83;;;2.13;;
3083;SDS011;1552;51.952;7.618;2023-09-30T14:25:02;9.23;;;2.67;;
3083;SDS011;1552;51.952;7.618;2023-09-30T14:27:28;5.85;;;3.05;;
3083;SDS011;1552;51.952;7.618;2023-09-30T14:29:55;6.60;;;2.25;;
3083;SDS011;1552;51.952;7.618;2023-09-30T14:32:21;3.13;;;1.70;;
3083;SDS011;1552;51.952;7.618;2023-09-30T14:34:48;8.68;;;2.25;;
3083;SDS011;1552;51.952;7.618;2023-09-30T14:37:14;4.50;;;2.45;;
3083;SDS011;1552;51.952;7.618;2023-09-30T14:39:43;3.67;;;2.03;;
3083;SDS011;1552;51.952;7.618;2023-09-30T14:42:09;3.03;;;2.40;;
3083;SDS011;1552;51.952;7.618;2023-09-30T14:44:36;3.83;;;2.17;;
3083;SDS011;1552;51.952;7.618;2023-09-30T14:47:02;9.25;;;2.13;;
3083;SDS011;1552;51.952;7.618;2023-09-30T14:49:30;4.95;;;2.25;;
3083;SDS011;1552;51.952;7.618;2023-09-30T14:51:56;8.15;;;2.22;;
3083;SDS011;1552;51.952;7.618;2023-09-30T14:54:23;6.20;;;2.15;;
3083;SDS011;1552;51.952;7.618;2023-09-30T14:56:50;4.03;;;2.22;;
3083;SDS011;1552;51.952;7.618;2023-09-30T14:59:17;4.57;;;1.95;;
3083;SDS011;1552;51.952;7.618;2023-09-30T15:01:43;5.25;;;2.60;;
3083;SDS011;1552;51.952;7.618;2023-09-30T15:04:09;3.90;;;2.10;;
3083;SDS011;1552;51.952;7.618;2023-09-30T15:06:36;6.15;;;2.28;;
3083;SDS011;1552;51.952;7.618;2023-09-30T15:09:02;5.50;;;2.47;;
3083;SDS011;1552;51.952;7.618;2023-09-30T15:11:29;7.75;;;2.20;;
3083;SDS011;1552;51.952;7.618;2023-09-30T15:13:57;6.40;;;2.35;;
3083;SDS011;1552;51.952;7.618;2023-09-30T15:16:23;3.92;;;1.98;;